sensor_id;sensor_type;location;lat;lon;timestamp;temperature;humidity
13464;DHT22;6804;48.774;9.174;2022-12-29T00:02:10;9.80;99.90
13464;DHT22;6804;48.774;9.174;2022-12-29T00:04:40;9.80;99.90
13464;DHT22;6804;48.774;9.174;2022-12-29T00:07:11;9.80;99.90
13464;DHT22;6804;48.774;9.174;2022-12-29T00:09:41;9.90;99.90
13464;DHT22;6804;48.774;9.174;2022-12-29T00:12:11;9.90;99.90
13464;DHT22;6804;48.774;9.174;2022-12-29T00:14:39;9.90;99.90
13464;DHT22;6804;48.774;9.174;2022-12-29T00:17:24;9.90;99.90
13464;DHT22;6804;48.774;9.174;2022-12-29T00:19:54;9.90;99.90
13464;DHT22;6804;48.774;9.174;2022-12-29T00:22:39;9.90;99.90
13464;DHT22;6804;48.774;9.174;2022-12-29T00:25:25;9.90;99.90
13464;DHT22;6804;48.774;9.174;2022-12-29T00:28:10;10.00;99.90
13464;DHT22;6804;48.774;9.174;2022-12-29T00:30:59;10.00;99.90
13464;DHT22;6804;48.774;9.174;2022-12-29T00:33:46;10.00;99.90
13464;DHT22;6804;48.774;9.174;2022-12-29T00:36:32;10.00;99.90
13464;DHT22;6804;48.774;9.174;2022-12-29T00:39:03;10.00;99.90
13464;DHT22;6804;48.774;9.174;2022-12-29T00:41:54;10.10;99.90
13464;DHT22;6804;48.774;9.174;2022-12-29T00:44:39;10.10;99.90
13464;DHT22;6804;48.774;9.174;2022-12-29T00:47:06;10.10;99.90
13464;DHT22;6804;48.774;9.174;2022-12-29T00:49:34;10.10;99.90
13464;DHT22;6804;48.774;9.174;2022-12-29T00:52:02;10.10;99.90
13464;DHT22;6804;48.774;9.174;2022-12-29T00:54:35;10.10;99.90
13464;DHT22;6804;48.774;9.174;2022-12-29T00:57:09;10.20;99.90
13464;DHT22;6804;48.774;9.174;2022-12-29T00:59:37;10.20;99.90
13464;DHT22;6804;48.774;9.174;2022-12-29T01:02:07;10.20;99.90
13464;DHT22;6804;48.774;9.174;2022-12-29T01:04:35;10.20;99.90
13464;DHT22;6804;48.774;9.174;2022-12-29T01:07:03;10.20;99.90
13464;DHT22;6804;48.774;9.174;2022-12-29T01:09:31;10.20;99.90
13464;DHT22;6804;48.774;9.174;2022-12-29T01:12:18;10.20;99.90
13464;DHT22;6804;48.774;9.174;2022-12-29T01:15:07;10.30;99.90
13464;DHT22;6804;48.774;9.174;2022-12-29T01:17:35;10.20;99.90
13464;DHT22;6804;48.774;9.174;2022-12-29T01:20:04;10.30;99.90
13464;DHT22;6804;48.774;9.174;2022-12-29T01:22:32;10.30;99.90
13464;DHT22;6804;48.774;9.174;2022-12-29T01:25:02;10.30;99.90
13464;DHT22;6804;48.774;9.174;2022-12-29T01:27:37;10.30;99.90
13464;DHT22;6804;48.774;9.174;2022-12-29T01:30:05;10.30;99.90
13464;DHT22;6804;48.774;9.174;2022-12-29T01:32:36;10.40;99.90
13464;DHT22;6804;48.774;9.174;2022-12-29T01:35:07;10.30;99.90
13464;DHT22;6804;48.774;9.174;2022-12-29T01:37:36;10.30;99.90
13464;DHT22;6804;48.774;9.174;2022-12-29T01:40:07;10.40;99.90
13464;DHT22;6804;48.774;9.174;2022-12-29T01:42:39;10.40;99.90
13464;DHT22;6804;48.774;9.174;2022-12-29T01:45:10;10.40;99.90
13464;DHT22;6804;48.774;9.174;2022-12-29T01:47:40;10.40;99.90
13464;DHT22;6804;48.774;9.174;2022-12-29T01:50:10;10.40;99.90
13464;DHT22;6804;48.774;9.174;2022-12-29T01:52:46;10.40;99.90
13464;DHT22;6804;48.774;9.174;2022-12-29T01:55:18;10.40;99.90
13464;DHT22;6804;48.774;9.174;2022-12-29T01:57:49;10.50;99.90
13464;DHT22;6804;48.774;9.174;2022-12-29T02:00:20;10.40;99.90
13464;DHT22;6804;48.774;9.174;2022-12-29T02:02:51;10.40;99.90
13464;DHT22;6804;48.774;9.174;2022-12-29T02:05:27;10.40;99.90
13464;DHT22;6804;48.774;9.174;2022-12-29T02:07:58;10.50;99.90
13464;DHT22;6804;48.774;9.174;2022-12-29T02:10:28;10.50;99.90
13464;DHT22;6804;48.774;9.174;2022-12-29T02:12:58;10.50;99.90
13464;DHT22;6804;48.774;9.174;2022-12-29T02:15:41;10.50;99.90
13464;DHT22;6804;48.774;9.174;2022-12-29T02:18:26;10.50;99.90
13464;DHT22;6804;48.774;9.174;2022-12-29T02:27:48;10.50;99.90
13464;DHT22;6804;48.774;9.174;2022-12-29T02:30:35;10.50;99.90
13464;DHT22;6804;48.774;9.174;2022-12-29T02:33:15;10.50;99.90
13464;DHT22;6804;48.774;9.174;2022-12-29T02:35:56;10.50;99.90
13464;DHT22;6804;48.774;9.174;2022-12-29T02:38:43;10.50;99.90
13464;DHT22;6804;48.774;9.174;2022-12-29T02:41:19;10.50;99.90
13464;DHT22;6804;48.774;9.174;2022-12-29T02:43:50;10.50;99.90
13464;DHT22;6804;48.774;9.174;2022-12-29T02:46:23;10.50;99.90
13464;DHT22;6804;48.774;9.174;2022-12-29T02:48:59;10.50;99.90
13464;DHT22;6804;48.774;9.174;2022-12-29T02:51:32;10.50;99.90
13464;DHT22;6804;48.774;9.174;2022-12-29T02:54:05;10.50;99.90
13464;DHT22;6804;48.774;9.174;2022-12-29T02:56:49;10.50;99.90
13464;DHT22;6804;48.774;9.174;2022-12-29T02:59:20;10.50;99.90
13464;DHT22;6804;48.774;9.174;2022-12-29T03:02:04;10.60;99.90
13464;DHT22;6804;48.774;9.174;2022-12-29T03:07:55;10.60;99.90
13464;DHT22;6804;48.774;9.174;2022-12-29T03:10:37;10.50;99.90
13464;DHT22;6804;48.774;9.174;2022-12-29T03:13:14;10.60;99.90
13464;DHT22;6804;48.774;9.174;2022-12-29T03:16:12;10.60;99.90
13464;DHT22;6804;48.774;9.174;2022-12-29T03:18:56;10.60;99.90
13464;DHT22;6804;48.774;9.174;2022-12-29T03:21:35;10.60;99.90
13464;DHT22;6804;48.774;9.174;2022-12-29T03:24:28;10.50;99.90
13464;DHT22;6804;48.774;9.174;2022-12-29T03:27:01;10.50;99.90
13464;DHT22;6804;48.774;9.174;2022-12-29T03:29:32;10.60;99.90
13464;DHT22;6804;48.774;9.174;2022-12-29T03:32:00;10.50;99.90
13464;DHT22;6804;48.774;9.174;2022-12-29T03:34:32;10.50;99.90
13464;DHT22;6804;48.774;9.174;2022-12-29T03:37:06;10.50;99.90
13464;DHT22;6804;48.774;9.174;2022-12-29T03:39:35;10.50;99.90
13464;DHT22;6804;48.774;9.174;2022-12-29T03:42:05;10.60;99.90
13464;DHT22;6804;48.774;9.174;2022-12-29T03:44:41;10.60;99.90
13464;DHT22;6804;48.774;9.174;2022-12-29T03:47:10;10.60;99.90
13464;DHT22;6804;48.774;9.174;2022-12-29T03:49:39;10.60;99.90
13464;DHT22;6804;48.774;9.174;2022-12-29T03:52:09;10.60;99.90
13464;DHT22;6804;48.774;9.174;2022-12-29T03:54:36;10.60;99.90
13464;DHT22;6804;48.774;9.174;2022-12-29T03:57:04;10.70;99.90
13464;DHT22;6804;48.774;9.174;2022-12-29T03:59:31;10.70;99.90
13464;DHT22;6804;48.774;9.174;2022-12-29T04:02:01;10.70;99.90
13464;DHT22;6804;48.774;9.174;2022-12-29T04:04:29;10.80;99.90
13464;DHT22;6804;48.774;9.174;2022-12-29T04:06:58;10.80;99.90
13464;DHT22;6804;48.774;9.174;2022-12-29T04:09:27;10.80;99.90
13464;DHT22;6804;48.774;9.174;2022-12-29T04:11:57;10.90;99.90
13464;DHT22;6804;48.774;9.174;2022-12-29T04:14:24;10.90;99.90
13464;DHT22;6804;48.774;9.174;2022-12-29T04:16:51;11.00;99.90
13464;DHT22;6804;48.774;9.174;2022-12-29T04:19:21;10.90;99.90
13464;DHT22;6804;48.774;9.174;2022-12-29T04:21:51;11.00;99.90
13464;DHT22;6804;48.774;9.174;2022-12-29T04:24:20;11.00;99.90
13464;DHT22;6804;48.774;9.174;2022-12-29T04:26:48;11.00;99.90
13464;DHT22;6804;48.774;9.174;2022-12-29T04:29:20;11.00;99.90
13464;DHT22;6804;48.774;9.174;2022-12-29T04:31:47;11.00;99.90
13464;DHT22;6804;48.774;9.174;2022-12-29T04:34:17;11.00;99.90
13464;DHT22;6804;48.774;9.174;2022-12-29T04:36:51;11.00;99.90
13464;DHT22;6804;48.774;9.174;2022-12-29T04:39:20;11.00;99.90
13464;DHT22;6804;48.774;9.174;2022-12-29T04:41:47;11.00;99.90
13464;DHT22;6804;48.774;9.174;2022-12-29T04:44:17;11.00;99.90
13464;DHT22;6804;48.774;9.174;2022-12-29T04:46:44;11.00;99.90
13464;DHT22;6804;48.774;9.174;2022-12-29T04:49:12;11.00;99.90
13464;DHT22;6804;48.774;9.174;2022-12-29T04:51:39;11.00;99.90
13464;DHT22;6804;48.774;9.174;2022-12-29T04:54:06;11.00;99.90
13464;DHT22;6804;48.774;9.174;2022-12-29T04:56:35;11.00;99.90
13464;DHT22;6804;48.774;9.174;2022-12-29T04:59:02;11.10;99.90
13464;DHT22;6804;48.774;9.174;2022-12-29T05:01:29;11.10;99.90
13464;DHT22;6804;48.774;9.174;2022-12-29T05:03:56;11.10;99.90
13464;DHT22;6804;48.774;9.174;2022-12-29T05:06:23;11.10;99.90
13464;DHT22;6804;48.774;9.174;2022-12-29T05:08:51;11.10;99.90
13464;DHT22;6804;48.774;9.174;2022-12-29T05:11:18;11.20;99.90
13464;DHT22;6804;48.774;9.174;2022-12-29T05:13:50;11.20;99.90
13464;DHT22;6804;48.774;9.174;2022-12-29T05:16:17;11.10;99.90
13464;DHT22;6804;48.774;9.174;2022-12-29T05:18:44;11.20;99.90
13464;DHT22;6804;48.774;9.174;2022-12-29T05:21:14;11.20;99.90
13464;DHT22;6804;48.774;9.174;2022-12-29T05:23:42;11.20;99.90
13464;DHT22;6804;48.774;9.174;2022-12-29T05:26:09;11.20;99.90
13464;DHT22;6804;48.774;9.174;2022-12-29T05:28:36;11.20;99.90
13464;DHT22;6804;48.774;9.174;2022-12-29T05:31:05;11.20;99.90
13464;DHT22;6804;48.774;9.174;2022-12-29T05:33:32;11.20;99.90
13464;DHT22;6804;48.774;9.174;2022-12-29T05:36:04;11.20;99.90
13464;DHT22;6804;48.774;9.174;2022-12-29T05:38:33;11.20;99.90
13464;DHT22;6804;48.774;9.174;2022-12-29T05:41:01;11.20;99.90
13464;DHT22;6804;48.774;9.174;2022-12-29T05:43:28;11.20;99.90
13464;DHT22;6804;48.774;9.174;2022-12-29T05:45:58;11.30;99.90
13464;DHT22;6804;48.774;9.174;2022-12-29T05:48:26;11.30;99.90
13464;DHT22;6804;48.774;9.174;2022-12-29T05:50:54;11.20;99.90
13464;DHT22;6804;48.774;9.174;2022-12-29T05:53:21;11.20;99.90
13464;DHT22;6804;48.774;9.174;2022-12-29T05:55:49;11.20;99.90
13464;DHT22;6804;48.774;9.174;2022-12-29T05:58:17;11.20;99.90
13464;DHT22;6804;48.774;9.174;2022-12-29T06:00:44;11.20;99.90
13464;DHT22;6804;48.774;9.174;2022-12-29T06:03:15;11.30;99.90
13464;DHT22;6804;48.774;9.174;2022-12-29T06:05:44;11.30;99.90
13464;DHT22;6804;48.774;9.174;2022-12-29T06:08:12;11.30;99.90
13464;DHT22;6804;48.774;9.174;2022-12-29T06:10:39;11.30;99.90
13464;DHT22;6804;48.774;9.174;2022-12-29T06:13:07;11.30;99.90
13464;DHT22;6804;48.774;9.174;2022-12-29T06:15:35;11.30;99.90
13464;DHT22;6804;48.774;9.174;2022-12-29T06:18:05;11.30;99.90
13464;DHT22;6804;48.774;9.174;2022-12-29T06:20:32;11.30;99.90
13464;DHT22;6804;48.774;9.174;2022-12-29T06:23:03;11.30;99.90
13464;DHT22;6804;48.774;9.174;2022-12-29T06:25:30;11.40;99.90
13464;DHT22;6804;48.774;9.174;2022-12-29T06:27:59;11.30;99.90
13464;DHT22;6804;48.774;9.174;2022-12-29T06:30:26;11.40;99.90
13464;DHT22;6804;48.774;9.174;2022-12-29T06:32:57;11.40;99.90
13464;DHT22;6804;48.774;9.174;2022-12-29T06:35:25;11.40;99.90
13464;DHT22;6804;48.774;9.174;2022-12-29T06:37:52;11.40;99.90
13464;DHT22;6804;48.774;9.174;2022-12-29T06:40:21;11.40;99.90
13464;DHT22;6804;48.774;9.174;2022-12-29T06:42:48;11.40;99.90
13464;DHT22;6804;48.774;9.174;2022-12-29T06:45:15;11.30;99.90
13464;DHT22;6804;48.774;9.174;2022-12-29T06:47:43;11.30;99.90
13464;DHT22;6804;48.774;9.174;2022-12-29T06:50:10;11.30;99.90
13464;DHT22;6804;48.774;9.174;2022-12-29T06:52:38;11.30;99.90
13464;DHT22;6804;48.774;9.174;2022-12-29T06:55:08;11.30;99.90
13464;DHT22;6804;48.774;9.174;2022-12-29T06:57:36;11.30;99.90
13464;DHT22;6804;48.774;9.174;2022-12-29T07:00:05;11.20;99.90
13464;DHT22;6804;48.774;9.174;2022-12-29T07:02:35;11.20;99.90
13464;DHT22;6804;48.774;9.174;2022-12-29T07:05:02;11.20;99.90
13464;DHT22;6804;48.774;9.174;2022-12-29T07:07:33;11.20;99.90
13464;DHT22;6804;48.774;9.174;2022-12-29T07:10:00;11.20;99.90
13464;DHT22;6804;48.774;9.174;2022-12-29T07:12:27;11.20;99.90
13464;DHT22;6804;48.774;9.174;2022-12-29T07:14:59;11.20;99.90
13464;DHT22;6804;48.774;9.174;2022-12-29T07:17:27;11.20;99.90
13464;DHT22;6804;48.774;9.174;2022-12-29T07:19:54;11.20;99.90
13464;DHT22;6804;48.774;9.174;2022-12-29T07:22:21;11.20;99.90
13464;DHT22;6804;48.774;9.174;2022-12-29T07:24:49;11.20;99.90
13464;DHT22;6804;48.774;9.174;2022-12-29T07:27:18;11.20;99.90
13464;DHT22;6804;48.774;9.174;2022-12-29T07:29:46;11.20;99.90
13464;DHT22;6804;48.774;9.174;2022-12-29T07:32:15;11.20;99.90
13464;DHT22;6804;48.774;9.174;2022-12-29T07:34:43;11.20;99.90
13464;DHT22;6804;48.774;9.174;2022-12-29T07:37:11;11.20;99.90
13464;DHT22;6804;48.774;9.174;2022-12-29T07:39:47;11.20;99.90
13464;DHT22;6804;48.774;9.174;2022-12-29T07:42:17;11.20;99.90
13464;DHT22;6804;48.774;9.174;2022-12-29T07:44:48;11.20;99.90
13464;DHT22;6804;48.774;9.174;2022-12-29T07:47:19;11.20;99.90
13464;DHT22;6804;48.774;9.174;2022-12-29T07:49:46;11.20;99.90
13464;DHT22;6804;48.774;9.174;2022-12-29T07:52:14;11.20;99.90
13464;DHT22;6804;48.774;9.174;2022-12-29T07:54:43;11.20;99.90
13464;DHT22;6804;48.774;9.174;2022-12-29T07:57:14;11.20;99.90
13464;DHT22;6804;48.774;9.174;2022-12-29T07:59:43;11.20;99.90
13464;DHT22;6804;48.774;9.174;2022-12-29T08:02:10;11.20;99.90
13464;DHT22;6804;48.774;9.174;2022-12-29T08:04:39;11.20;99.90
13464;DHT22;6804;48.774;9.174;2022-12-29T08:07:06;11.20;99.90
13464;DHT22;6804;48.774;9.174;2022-12-29T08:09:37;11.20;99.90
13464;DHT22;6804;48.774;9.174;2022-12-29T08:12:05;11.20;99.90
13464;DHT22;6804;48.774;9.174;2022-12-29T08:14:32;11.20;99.90
13464;DHT22;6804;48.774;9.174;2022-12-29T08:17:00;11.20;99.90
13464;DHT22;6804;48.774;9.174;2022-12-29T08:19:27;11.30;99.90
13464;DHT22;6804;48.774;9.174;2022-12-29T08:21:56;11.30;99.90
13464;DHT22;6804;48.774;9.174;2022-12-29T08:24:27;11.30;99.90
13464;DHT22;6804;48.774;9.174;2022-12-29T08:26:55;11.30;99.90
13464;DHT22;6804;48.774;9.174;2022-12-29T08:29:24;11.30;99.90
13464;DHT22;6804;48.774;9.174;2022-12-29T08:31:54;11.30;99.90
13464;DHT22;6804;48.774;9.174;2022-12-29T08:34:22;11.40;99.90
13464;DHT22;6804;48.774;9.174;2022-12-29T08:36:49;11.40;99.90
13464;DHT22;6804;48.774;9.174;2022-12-29T08:39:18;11.40;99.90
13464;DHT22;6804;48.774;9.174;2022-12-29T08:41:45;11.40;99.90
13464;DHT22;6804;48.774;9.174;2022-12-29T08:44:15;11.40;99.90
13464;DHT22;6804;48.774;9.174;2022-12-29T08:46:43;11.50;99.90
13464;DHT22;6804;48.774;9.174;2022-12-29T08:49:13;11.50;99.90
13464;DHT22;6804;48.774;9.174;2022-12-29T08:51:40;11.50;99.90
13464;DHT22;6804;48.774;9.174;2022-12-29T08:54:10;11.50;99.90
13464;DHT22;6804;48.774;9.174;2022-12-29T08:56:39;11.50;99.90
13464;DHT22;6804;48.774;9.174;2022-12-29T08:59:09;11.60;99.90
13464;DHT22;6804;48.774;9.174;2022-12-29T09:01:36;11.50;99.90
13464;DHT22;6804;48.774;9.174;2022-12-29T09:04:06;11.60;99.90
13464;DHT22;6804;48.774;9.174;2022-12-29T09:06:36;11.60;99.90
13464;DHT22;6804;48.774;9.174;2022-12-29T09:09:04;11.60;99.90
13464;DHT22;6804;48.774;9.174;2022-12-29T09:11:31;11.60;99.90
13464;DHT22;6804;48.774;9.174;2022-12-29T09:14:03;11.60;99.90
13464;DHT22;6804;48.774;9.174;2022-12-29T09:16:30;11.60;99.90
13464;DHT22;6804;48.774;9.174;2022-12-29T09:18:58;11.70;99.90
13464;DHT22;6804;48.774;9.174;2022-12-29T09:21:25;11.70;99.90
13464;DHT22;6804;48.774;9.174;2022-12-29T09:23:53;11.70;99.90
13464;DHT22;6804;48.774;9.174;2022-12-29T09:26:20;11.70;99.90
13464;DHT22;6804;48.774;9.174;2022-12-29T09:28:49;11.70;99.90
13464;DHT22;6804;48.774;9.174;2022-12-29T09:31:18;11.80;99.90
13464;DHT22;6804;48.774;9.174;2022-12-29T09:33:46;11.80;99.90
13464;DHT22;6804;48.774;9.174;2022-12-29T09:36:19;11.90;99.90
13464;DHT22;6804;48.774;9.174;2022-12-29T09:38:46;11.90;99.90
13464;DHT22;6804;48.774;9.174;2022-12-29T09:41:17;12.00;99.90
13464;DHT22;6804;48.774;9.174;2022-12-29T09:44:00;12.00;99.90
13464;DHT22;6804;48.774;9.174;2022-12-29T09:46:34;12.00;99.90
13464;DHT22;6804;48.774;9.174;2022-12-29T09:49:13;12.00;99.90
13464;DHT22;6804;48.774;9.174;2022-12-29T09:51:46;12.00;99.90
13464;DHT22;6804;48.774;9.174;2022-12-29T09:54:37;12.10;99.90
13464;DHT22;6804;48.774;9.174;2022-12-29T09:57:13;12.10;99.90
13464;DHT22;6804;48.774;9.174;2022-12-29T09:59:44;12.20;99.90
13464;DHT22;6804;48.774;9.174;2022-12-29T10:02:23;12.30;99.90
13464;DHT22;6804;48.774;9.174;2022-12-29T10:04:56;12.30;99.90
13464;DHT22;6804;48.774;9.174;2022-12-29T10:07:32;12.30;99.90
13464;DHT22;6804;48.774;9.174;2022-12-29T10:10:22;12.40;99.90
13464;DHT22;6804;48.774;9.174;2022-12-29T10:13:07;12.40;99.90
13464;DHT22;6804;48.774;9.174;2022-12-29T10:15:49;12.40;99.90
13464;DHT22;6804;48.774;9.174;2022-12-29T10:18:39;12.50;99.90
13464;DHT22;6804;48.774;9.174;2022-12-29T10:21:22;12.50;99.90
13464;DHT22;6804;48.774;9.174;2022-12-29T10:23:54;12.60;99.90
13464;DHT22;6804;48.774;9.174;2022-12-29T10:26:26;12.60;99.90
13464;DHT22;6804;48.774;9.174;2022-12-29T10:28:56;12.60;99.90
13464;DHT22;6804;48.774;9.174;2022-12-29T10:31:31;12.70;99.90
13464;DHT22;6804;48.774;9.174;2022-12-29T10:34:06;12.70;99.90
13464;DHT22;6804;48.774;9.174;2022-12-29T10:36:37;12.70;99.90
13464;DHT22;6804;48.774;9.174;2022-12-29T10:39:13;12.70;99.90
13464;DHT22;6804;48.774;9.174;2022-12-29T10:41:45;12.80;99.90
13464;DHT22;6804;48.774;9.174;2022-12-29T10:44:15;12.80;99.90
13464;DHT22;6804;48.774;9.174;2022-12-29T10:46:50;12.90;99.90
13464;DHT22;6804;48.774;9.174;2022-12-29T10:49:21;13.00;99.90
13464;DHT22;6804;48.774;9.174;2022-12-29T10:51:54;13.00;99.90
13464;DHT22;6804;48.774;9.174;2022-12-29T10:54:25;13.10;99.90
13464;DHT22;6804;48.774;9.174;2022-12-29T10:56:56;13.20;99.90
13464;DHT22;6804;48.774;9.174;2022-12-29T10:59:29;13.30;99.90
13464;DHT22;6804;48.774;9.174;2022-12-29T11:02:04;13.50;99.90
13464;DHT22;6804;48.774;9.174;2022-12-29T11:04:48;13.60;99.90
13464;DHT22;6804;48.774;9.174;2022-12-29T11:07:23;13.70;99.90
13464;DHT22;6804;48.774;9.174;2022-12-29T11:09:53;13.80;99.90
13464;DHT22;6804;48.774;9.174;2022-12-29T11:12:25;13.80;99.90
13464;DHT22;6804;48.774;9.174;2022-12-29T11:15:13;13.80;99.90
13464;DHT22;6804;48.774;9.174;2022-12-29T11:17:45;13.80;99.90
13464;DHT22;6804;48.774;9.174;2022-12-29T11:20:35;13.70;99.90
13464;DHT22;6804;48.774;9.174;2022-12-29T11:23:04;13.70;99.90
13464;DHT22;6804;48.774;9.174;2022-12-29T11:25:35;13.70;99.90
13464;DHT22;6804;48.774;9.174;2022-12-29T11:28:15;13.70;99.90
13464;DHT22;6804;48.774;9.174;2022-12-29T11:30:43;13.70;99.90
13464;DHT22;6804;48.774;9.174;2022-12-29T11:33:10;13.60;99.90
13464;DHT22;6804;48.774;9.174;2022-12-29T11:35:43;13.60;99.90
13464;DHT22;6804;48.774;9.174;2022-12-29T11:38:19;13.60;99.90
13464;DHT22;6804;48.774;9.174;2022-12-29T11:40:48;13.60;99.90
13464;DHT22;6804;48.774;9.174;2022-12-29T11:43:21;13.60;99.90
13464;DHT22;6804;48.774;9.174;2022-12-29T11:45:52;13.50;99.90
13464;DHT22;6804;48.774;9.174;2022-12-29T11:48:22;13.50;99.90
13464;DHT22;6804;48.774;9.174;2022-12-29T11:50:54;13.50;99.90
13464;DHT22;6804;48.774;9.174;2022-12-29T11:53:24;13.50;99.90
13464;DHT22;6804;48.774;9.174;2022-12-29T11:55:55;13.50;99.90
13464;DHT22;6804;48.774;9.174;2022-12-29T11:58:30;13.50;99.90
13464;DHT22;6804;48.774;9.174;2022-12-29T12:01:00;13.50;99.90
13464;DHT22;6804;48.774;9.174;2022-12-29T12:03:35;13.40;99.90
13464;DHT22;6804;48.774;9.174;2022-12-29T12:06:10;13.40;99.90
13464;DHT22;6804;48.774;9.174;2022-12-29T12:08:44;13.30;99.90
13464;DHT22;6804;48.774;9.174;2022-12-29T12:11:19;13.30;99.90
13464;DHT22;6804;48.774;9.174;2022-12-29T12:13:57;13.20;99.90
13464;DHT22;6804;48.774;9.174;2022-12-29T12:16:30;13.20;99.90
13464;DHT22;6804;48.774;9.174;2022-12-29T12:19:08;13.10;99.90
13464;DHT22;6804;48.774;9.174;2022-12-29T12:21:41;13.10;99.90
13464;DHT22;6804;48.774;9.174;2022-12-29T12:24:31;13.10;99.90
13464;DHT22;6804;48.774;9.174;2022-12-29T12:27:09;13.00;99.90
13464;DHT22;6804;48.774;9.174;2022-12-29T12:29:46;13.00;99.90
13464;DHT22;6804;48.774;9.174;2022-12-29T12:32:22;13.00;99.90
13464;DHT22;6804;48.774;9.174;2022-12-29T12:34:50;13.00;99.90
13464;DHT22;6804;48.774;9.174;2022-12-29T12:37:37;13.00;99.90
13464;DHT22;6804;48.774;9.174;2022-12-29T12:40:27;13.10;99.90
13464;DHT22;6804;48.774;9.174;2022-12-29T12:43:08;13.10;99.90
13464;DHT22;6804;48.774;9.174;2022-12-29T12:45:49;13.00;99.90
13464;DHT22;6804;48.774;9.174;2022-12-29T12:48:28;13.10;99.90
13464;DHT22;6804;48.774;9.174;2022-12-29T12:51:08;13.00;99.90
13464;DHT22;6804;48.774;9.174;2022-12-29T12:53:48;13.00;99.90
13464;DHT22;6804;48.774;9.174;2022-12-29T12:56:37;13.00;99.90
13464;DHT22;6804;48.774;9.174;2022-12-29T12:59:30;13.00;99.90
13464;DHT22;6804;48.774;9.174;2022-12-29T13:02:06;13.00;99.90
13464;DHT22;6804;48.774;9.174;2022-12-29T13:04:53;13.00;99.90
13464;DHT22;6804;48.774;9.174;2022-12-29T13:07:32;13.20;99.90
13464;DHT22;6804;48.774;9.174;2022-12-29T13:10:19;13.30;99.90
13464;DHT22;6804;48.774;9.174;2022-12-29T13:13:24;13.40;99.90
13464;DHT22;6804;48.774;9.174;2022-12-29T13:16:00;13.50;99.90
13464;DHT22;6804;48.774;9.174;2022-12-29T13:18:37;13.50;99.90
13464;DHT22;6804;48.774;9.174;2022-12-29T13:21:10;13.50;99.90
13464;DHT22;6804;48.774;9.174;2022-12-29T13:23:47;13.60;99.90
13464;DHT22;6804;48.774;9.174;2022-12-29T13:26:21;13.70;99.90
13464;DHT22;6804;48.774;9.174;2022-12-29T13:28:57;13.70;99.90
13464;DHT22;6804;48.774;9.174;2022-12-29T13:31:33;13.70;99.90
13464;DHT22;6804;48.774;9.174;2022-12-29T13:34:10;13.60;99.90
13464;DHT22;6804;48.774;9.174;2022-12-29T13:36:46;13.50;99.90
13464;DHT22;6804;48.774;9.174;2022-12-29T13:39:21;13.50;99.90
13464;DHT22;6804;48.774;9.174;2022-12-29T13:41:51;13.40;99.90
13464;DHT22;6804;48.774;9.174;2022-12-29T13:44:23;13.30;99.90
13464;DHT22;6804;48.774;9.174;2022-12-29T13:46:53;13.30;99.90
13464;DHT22;6804;48.774;9.174;2022-12-29T13:49:22;13.30;99.90
13464;DHT22;6804;48.774;9.174;2022-12-29T13:51:54;13.20;99.90
13464;DHT22;6804;48.774;9.174;2022-12-29T13:54:33;13.20;99.90
13464;DHT22;6804;48.774;9.174;2022-12-29T13:57:14;13.20;99.90
13464;DHT22;6804;48.774;9.174;2022-12-29T13:59:51;13.20;99.90
13464;DHT22;6804;48.774;9.174;2022-12-29T14:02:28;13.10;99.90
13464;DHT22;6804;48.774;9.174;2022-12-29T14:05:03;13.10;99.90
13464;DHT22;6804;48.774;9.174;2022-12-29T14:07:39;13.10;99.90
13464;DHT22;6804;48.774;9.174;2022-12-29T14:10:28;13.10;99.90
13464;DHT22;6804;48.774;9.174;2022-12-29T14:13:03;13.00;99.90
13464;DHT22;6804;48.774;9.174;2022-12-29T14:15:38;13.00;99.90
13464;DHT22;6804;48.774;9.174;2022-12-29T14:18:15;13.00;99.90
13464;DHT22;6804;48.774;9.174;2022-12-29T14:20:53;13.10;99.90
13464;DHT22;6804;48.774;9.174;2022-12-29T14:23:34;13.10;99.90
13464;DHT22;6804;48.774;9.174;2022-12-29T14:26:32;13.10;99.90
13464;DHT22;6804;48.774;9.174;2022-12-29T14:31:55;13.10;99.90
13464;DHT22;6804;48.774;9.174;2022-12-29T14:34:38;13.10;99.90
13464;DHT22;6804;48.774;9.174;2022-12-29T14:37:23;13.00;99.90
13464;DHT22;6804;48.774;9.174;2022-12-29T14:40:04;13.00;99.90
13464;DHT22;6804;48.774;9.174;2022-12-29T14:42:34;13.00;99.90
13464;DHT22;6804;48.774;9.174;2022-12-29T14:45:04;13.00;99.90
13464;DHT22;6804;48.774;9.174;2022-12-29T14:47:37;13.00;99.90
13464;DHT22;6804;48.774;9.174;2022-12-29T14:50:12;12.90;99.90
13464;DHT22;6804;48.774;9.174;2022-12-29T14:52:46;12.90;99.90
13464;DHT22;6804;48.774;9.174;2022-12-29T14:55:36;12.90;99.90
13464;DHT22;6804;48.774;9.174;2022-12-29T14:58:05;12.90;99.90
13464;DHT22;6804;48.774;9.174;2022-12-29T15:00:36;12.90;99.90
13464;DHT22;6804;48.774;9.174;2022-12-29T15:03:07;12.90;99.90
13464;DHT22;6804;48.774;9.174;2022-12-29T15:05:43;12.90;99.90
13464;DHT22;6804;48.774;9.174;2022-12-29T15:08:13;12.90;99.90
13464;DHT22;6804;48.774;9.174;2022-12-29T15:10:48;12.90;99.90
13464;DHT22;6804;48.774;9.174;2022-12-29T15:13:22;12.80;99.90
13464;DHT22;6804;48.774;9.174;2022-12-29T15:15:50;12.80;99.90
13464;DHT22;6804;48.774;9.174;2022-12-29T15:18:28;12.80;99.90
13464;DHT22;6804;48.774;9.174;2022-12-29T15:20:57;12.80;99.90
13464;DHT22;6804;48.774;9.174;2022-12-29T15:23:30;12.70;99.90
13464;DHT22;6804;48.774;9.174;2022-12-29T15:26:02;12.70;99.90
13464;DHT22;6804;48.774;9.174;2022-12-29T15:28:38;12.70;99.90
13464;DHT22;6804;48.774;9.174;2022-12-29T15:31:10;12.60;99.90
13464;DHT22;6804;48.774;9.174;2022-12-29T15:33:43;12.70;99.90
13464;DHT22;6804;48.774;9.174;2022-12-29T15:36:16;12.60;99.90
13464;DHT22;6804;48.774;9.174;2022-12-29T15:38:52;12.60;99.90
13464;DHT22;6804;48.774;9.174;2022-12-29T15:41:31;12.60;99.90
13464;DHT22;6804;48.774;9.174;2022-12-29T15:44:26;12.60;99.90
13464;DHT22;6804;48.774;9.174;2022-12-29T15:47:03;12.60;99.90
13464;DHT22;6804;48.774;9.174;2022-12-29T15:49:32;12.50;99.90
13464;DHT22;6804;48.774;9.174;2022-12-29T15:52:02;12.60;99.90
13464;DHT22;6804;48.774;9.174;2022-12-29T15:54:34;12.50;99.90
13464;DHT22;6804;48.774;9.174;2022-12-29T15:57:01;12.50;99.90
13464;DHT22;6804;48.774;9.174;2022-12-29T15:59:29;12.60;99.90
13464;DHT22;6804;48.774;9.174;2022-12-29T16:01:58;12.60;99.90
13464;DHT22;6804;48.774;9.174;2022-12-29T16:04:28;12.50;99.90
13464;DHT22;6804;48.774;9.174;2022-12-29T16:07:02;12.40;99.90
13464;DHT22;6804;48.774;9.174;2022-12-29T16:09:31;12.30;99.90
13464;DHT22;6804;48.774;9.174;2022-12-29T16:12:03;12.20;99.90
13464;DHT22;6804;48.774;9.174;2022-12-29T16:14:33;12.10;99.90
13464;DHT22;6804;48.774;9.174;2022-12-29T16:17:04;12.00;99.90
13464;DHT22;6804;48.774;9.174;2022-12-29T16:19:34;11.90;99.90
13464;DHT22;6804;48.774;9.174;2022-12-29T16:22:10;11.90;99.90
13464;DHT22;6804;48.774;9.174;2022-12-29T16:24:39;11.80;99.90
13464;DHT22;6804;48.774;9.174;2022-12-29T16:27:21;11.80;99.90
13464;DHT22;6804;48.774;9.174;2022-12-29T16:29:53;11.80;99.90
13464;DHT22;6804;48.774;9.174;2022-12-29T16:32:24;11.80;99.90
13464;DHT22;6804;48.774;9.174;2022-12-29T16:35:00;11.70;99.90
13464;DHT22;6804;48.774;9.174;2022-12-29T16:37:32;11.70;99.90